sensor_id;sensor_type;location;lat;lon;timestamp;P1;durP1;ratioP1;P2;durP2;ratioP2
21886;SDS011;11108;49.988;8.182;2023-08-07T00:01:16;1.27;;;0.60;;
21886;SDS011;11108;49.988;8.182;2023-08-07T00:03:41;1.03;;;0.70;;
21886;SDS011;11108;49.988;8.182;2023-08-07T00:06:06;1.10;;;0.70;;
21886;SDS011;11108;49.988;8.182;2023-08-07T00:08:32;0.70;;;0.70;;
21886;SDS011;11108;49.988;8.182;2023-08-07T00:11:07;1.27;;;0.50;;
21886;SDS011;11108;49.988;8.182;2023-08-07T00:13:33;1.63;;;0.70;;
21886;SDS011;11108;49.988;8.182;2023-08-07T00:15:58;1.30;;;0.77;;
21886;SDS011;11108;49.988;8.182;2023-08-07T00:18:23;0.73;;;0.73;;
21886;SDS011;11108;49.988;8.182;2023-08-07T00:20:48;0.77;;;0.77;;
21886;SDS011;11108;49.988;8.182;2023-08-07T00:23:14;1.07;;;0.40;;
21886;SDS011;11108;49.988;8.182;2023-08-07T00:25:39;0.40;;;0.40;;
21886;SDS011;11108;49.988;8.182;2023-08-07T00:28:04;0.70;;;0.70;;
21886;SDS011;11108;49.988;8.182;2023-08-07T00:30:29;1.50;;;0.60;;
21886;SDS011;11108;49.988;8.182;2023-08-07T00:32:54;0.83;;;0.50;;
21886;SDS011;11108;49.988;8.182;2023-08-07T00:35:20;0.97;;;0.67;;
21886;SDS011;11108;49.988;8.182;2023-08-07T00:37:45;0.60;;;0.60;;
21886;SDS011;11108;49.988;8.182;2023-08-07T00:40:10;2.03;;;0.57;;
21886;SDS011;11108;49.988;8.182;2023-08-07T00:42:35;1.27;;;0.77;;
21886;SDS011;11108;49.988;8.182;2023-08-07T00:45:01;1.30;;;0.60;;
21886;SDS011;11108;49.988;8.182;2023-08-07T00:47:26;0.60;;;0.60;;
21886;SDS011;11108;49.988;8.182;2023-08-07T00:49:51;1.53;;;0.67;;
21886;SDS011;11108;49.988;8.182;2023-08-07T00:52:16;0.70;;;0.67;;
21886;SDS011;11108;49.988;8.182;2023-08-07T00:54:42;0.60;;;0.60;;
21886;SDS011;11108;49.988;8.182;2023-08-07T00:57:09;1.27;;;0.90;;
21886;SDS011;11108;49.988;8.182;2023-08-07T00:59:35;1.40;;;0.80;;
21886;SDS011;11108;49.988;8.182;2023-08-07T01:02:01;0.77;;;0.77;;
21886;SDS011;11108;49.988;8.182;2023-08-07T01:04:26;0.87;;;0.67;;
21886;SDS011;11108;49.988;8.182;2023-08-07T01:06:51;1.03;;;0.70;;
21886;SDS011;11108;49.988;8.182;2023-08-07T01:09:16;3.07;;;1.30;;
21886;SDS011;11108;49.988;8.182;2023-08-07T01:11:48;0.83;;;0.63;;
21886;SDS011;11108;49.988;8.182;2023-08-07T01:16:53;1.47;;;0.70;;
21886;SDS011;11108;49.988;8.182;2023-08-07T01:19:24;1.43;;;0.63;;
21886;SDS011;11108;49.988;8.182;2023-08-07T01:21:50;0.63;;;0.60;;
21886;SDS011;11108;49.988;8.182;2023-08-07T01:24:15;1.00;;;0.80;;
21886;SDS011;11108;49.988;8.182;2023-08-07T01:26:41;1.13;;;0.90;;
21886;SDS011;11108;49.988;8.182;2023-08-07T01:32:02;1.10;;;1.00;;
21886;SDS011;11108;49.988;8.182;2023-08-07T01:34:29;1.73;;;0.80;;
21886;SDS011;11108;49.988;8.182;2023-08-07T01:36:55;1.80;;;1.10;;
21886;SDS011;11108;49.988;8.182;2023-08-07T01:39:22;1.17;;;0.80;;
21886;SDS011;11108;49.988;8.182;2023-08-07T01:41:48;2.40;;;0.90;;
21886;SDS011;11108;49.988;8.182;2023-08-07T01:44:13;1.27;;;1.10;;
21886;SDS011;11108;49.988;8.182;2023-08-07T01:46:39;0.90;;;0.80;;
21886;SDS011;11108;49.988;8.182;2023-08-07T01:49:04;0.60;;;0.60;;
21886;SDS011;11108;49.988;8.182;2023-08-07T01:51:29;0.60;;;0.60;;
21886;SDS011;11108;49.988;8.182;2023-08-07T01:53:54;1.37;;;0.83;;
21886;SDS011;11108;49.988;8.182;2023-08-07T01:56:19;1.30;;;0.97;;
21886;SDS011;11108;49.988;8.182;2023-08-07T01:58:44;1.20;;;0.90;;
21886;SDS011;11108;49.988;8.182;2023-08-07T02:01:10;1.73;;;0.90;;
21886;SDS011;11108;49.988;8.182;2023-08-07T02:03:35;0.97;;;0.90;;
21886;SDS011;11108;49.988;8.182;2023-08-07T02:06:00;1.33;;;1.00;;
21886;SDS011;11108;49.988;8.182;2023-08-07T02:08:26;1.63;;;0.90;;
21886;SDS011;11108;49.988;8.182;2023-08-07T02:10:52;0.97;;;0.90;;
21886;SDS011;11108;49.988;8.182;2023-08-07T02:13:17;1.10;;;0.80;;
21886;SDS011;11108;49.988;8.182;2023-08-07T02:15:42;2.10;;;1.00;;
21886;SDS011;11108;49.988;8.182;2023-08-07T02:18:07;1.10;;;0.80;;
21886;SDS011;11108;49.988;8.182;2023-08-07T02:20:32;1.07;;;0.83;;
21886;SDS011;11108;49.988;8.182;2023-08-07T02:22:58;1.33;;;0.83;;
21886;SDS011;11108;49.988;8.182;2023-08-07T02:25:23;2.43;;;1.00;;
21886;SDS011;11108;49.988;8.182;2023-08-07T02:27:48;1.27;;;1.00;;
21886;SDS011;11108;49.988;8.182;2023-08-07T02:30:13;1.40;;;1.00;;
21886;SDS011;11108;49.988;8.182;2023-08-07T02:32:38;2.53;;;1.30;;
21886;SDS011;11108;49.988;8.182;2023-08-07T02:35:06;0.67;;;0.67;;
21886;SDS011;11108;49.988;8.182;2023-08-07T02:37:31;1.13;;;0.90;;
21886;SDS011;11108;49.988;8.182;2023-08-07T02:39:57;1.00;;;0.90;;
21886;SDS011;11108;49.988;8.182;2023-08-07T02:42:22;1.83;;;1.10;;
21886;SDS011;11108;49.988;8.182;2023-08-07T02:44:47;1.50;;;1.00;;
21886;SDS011;11108;49.988;8.182;2023-08-07T02:47:12;2.33;;;1.10;;
21886;SDS011;11108;49.988;8.182;2023-08-07T02:49:37;1.10;;;1.00;;
21886;SDS011;11108;49.988;8.182;2023-08-07T02:52:03;1.83;;;0.97;;
21886;SDS011;11108;49.988;8.182;2023-08-07T02:54:28;1.50;;;0.97;;
21886;SDS011;11108;49.988;8.182;2023-08-07T02:56:53;1.47;;;1.00;;
21886;SDS011;11108;49.988;8.182;2023-08-07T02:59:18;1.47;;;1.10;;
21886;SDS011;11108;49.988;8.182;2023-08-07T03:01:44;0.90;;;0.90;;
21886;SDS011;11108;49.988;8.182;2023-08-07T03:04:09;0.90;;;0.90;;
21886;SDS011;11108;49.988;8.182;2023-08-07T03:06:34;1.00;;;1.00;;
21886;SDS011;11108;49.988;8.182;2023-08-07T03:09:00;2.10;;;1.20;;
21886;SDS011;11108;49.988;8.182;2023-08-07T03:11:25;1.10;;;0.97;;
21886;SDS011;11108;49.988;8.182;2023-08-07T03:13:50;1.20;;;1.10;;
21886;SDS011;11108;49.988;8.182;2023-08-07T03:16:15;1.57;;;1.00;;
21886;SDS011;11108;49.988;8.182;2023-08-07T03:18:41;2.80;;;1.30;;
21886;SDS011;11108;49.988;8.182;2023-08-07T03:21:06;1.97;;;1.20;;
21886;SDS011;11108;49.988;8.182;2023-08-07T03:23:31;2.00;;;1.30;;
21886;SDS011;11108;49.988;8.182;2023-08-07T03:26:09;3.27;;;1.43;;
21886;SDS011;11108;49.988;8.182;2023-08-07T03:28:35;3.13;;;1.37;;
21886;SDS011;11108;49.988;8.182;2023-08-07T03:31:00;2.00;;;0.90;;
21886;SDS011;11108;49.988;8.182;2023-08-07T03:33:26;1.17;;;1.13;;
21886;SDS011;11108;49.988;8.182;2023-08-07T03:35:51;1.23;;;1.13;;
21886;SDS011;11108;49.988;8.182;2023-08-07T03:38:16;1.67;;;1.50;;
21886;SDS011;11108;49.988;8.182;2023-08-07T03:40:41;2.30;;;1.30;;
21886;SDS011;11108;49.988;8.182;2023-08-07T03:43:07;1.20;;;1.10;;
21886;SDS011;11108;49.988;8.182;2023-08-07T03:45:32;1.40;;;1.13;;
21886;SDS011;11108;49.988;8.182;2023-08-07T03:47:57;1.23;;;1.23;;
21886;SDS011;11108;49.988;8.182;2023-08-07T03:50:22;1.33;;;1.07;;
21886;SDS011;11108;49.988;8.182;2023-08-07T03:52:47;1.17;;;1.17;;
21886;SDS011;11108;49.988;8.182;2023-08-07T03:55:13;1.47;;;1.03;;
21886;SDS011;11108;49.988;8.182;2023-08-07T03:57:38;1.43;;;1.33;;
21886;SDS011;11108;49.988;8.182;2023-08-07T04:00:03;1.43;;;1.30;;
21886;SDS011;11108;49.988;8.182;2023-08-07T04:02:29;1.77;;;1.30;;
21886;SDS011;11108;49.988;8.182;2023-08-07T04:04:56;1.40;;;1.30;;
21886;SDS011;11108;49.988;8.182;2023-08-07T04:07:21;1.27;;;1.10;;
21886;SDS011;11108;49.988;8.182;2023-08-07T04:09:47;1.00;;;1.00;;
21886;SDS011;11108;49.988;8.182;2023-08-07T04:12:12;2.63;;;1.00;;
21886;SDS011;11108;49.988;8.182;2023-08-07T04:14:37;1.23;;;1.10;;
21886;SDS011;11108;49.988;8.182;2023-08-07T04:17:03;1.10;;;1.00;;
21886;SDS011;11108;49.988;8.182;2023-08-07T04:19:28;1.43;;;1.33;;
21886;SDS011;11108;49.988;8.182;2023-08-07T04:21:53;1.10;;;1.00;;
21886;SDS011;11108;49.988;8.182;2023-08-07T04:24:18;1.07;;;1.07;;
21886;SDS011;11108;49.988;8.182;2023-08-07T04:26:43;2.80;;;1.03;;
21886;SDS011;11108;49.988;8.182;2023-08-07T04:29:09;2.80;;;1.40;;
21886;SDS011;11108;49.988;8.182;2023-08-07T04:31:34;2.03;;;1.30;;
21886;SDS011;11108;49.988;8.182;2023-08-07T04:33:59;1.30;;;1.20;;
21886;SDS011;11108;49.988;8.182;2023-08-07T04:36:24;1.57;;;1.37;;
21886;SDS011;11108;49.988;8.182;2023-08-07T04:38:50;1.17;;;1.03;;
21886;SDS011;11108;49.988;8.182;2023-08-07T04:41:15;2.20;;;1.33;;
21886;SDS011;11108;49.988;8.182;2023-08-07T04:43:40;1.30;;;1.20;;
21886;SDS011;11108;49.988;8.182;2023-08-07T04:46:07;1.43;;;1.30;;
21886;SDS011;11108;49.988;8.182;2023-08-07T04:48:33;1.87;;;1.20;;
21886;SDS011;11108;49.988;8.182;2023-08-07T04:50:58;1.70;;;1.60;;
21886;SDS011;11108;49.988;8.182;2023-08-07T04:53:24;1.97;;;1.03;;
21886;SDS011;11108;49.988;8.182;2023-08-07T04:55:49;1.53;;;1.43;;
21886;SDS011;11108;49.988;8.182;2023-08-07T04:58:14;0.97;;;0.90;;
21886;SDS011;11108;49.988;8.182;2023-08-07T05:00:39;2.13;;;1.20;;
21886;SDS011;11108;49.988;8.182;2023-08-07T05:03:04;1.17;;;1.10;;
21886;SDS011;11108;49.988;8.182;2023-08-07T05:05:30;3.13;;;1.33;;
21886;SDS011;11108;49.988;8.182;2023-08-07T05:07:55;2.13;;;1.10;;
21886;SDS011;11108;49.988;8.182;2023-08-07T05:10:20;1.90;;;1.43;;
21886;SDS011;11108;49.988;8.182;2023-08-07T05:12:45;2.07;;;1.33;;
21886;SDS011;11108;49.988;8.182;2023-08-07T05:15:11;1.10;;;1.10;;
21886;SDS011;11108;49.988;8.182;2023-08-07T05:17:36;1.50;;;1.20;;
21886;SDS011;11108;49.988;8.182;2023-08-07T05:20:01;1.37;;;1.30;;
21886;SDS011;11108;49.988;8.182;2023-08-07T05:22:26;1.73;;;1.20;;
21886;SDS011;11108;49.988;8.182;2023-08-07T05:24:51;1.97;;;1.23;;
21886;SDS011;11108;49.988;8.182;2023-08-07T05:27:17;1.20;;;1.10;;
21886;SDS011;11108;49.988;8.182;2023-08-07T05:29:42;2.33;;;1.10;;
21886;SDS011;11108;49.988;8.182;2023-08-07T05:32:10;1.47;;;1.37;;
21886;SDS011;11108;49.988;8.182;2023-08-07T05:34:36;1.03;;;1.03;;
21886;SDS011;11108;49.988;8.182;2023-08-07T05:37:01;2.60;;;1.40;;
21886;SDS011;11108;49.988;8.182;2023-08-07T05:39:26;1.40;;;1.30;;
21886;SDS011;11108;49.988;8.182;2023-08-07T05:41:52;1.43;;;1.33;;
21886;SDS011;11108;49.988;8.182;2023-08-07T05:44:19;2.23;;;1.17;;
21886;SDS011;11108;49.988;8.182;2023-08-07T05:46:44;2.40;;;1.50;;
21886;SDS011;11108;49.988;8.182;2023-08-07T05:49:09;1.20;;;1.10;;
21886;SDS011;11108;49.988;8.182;2023-08-07T05:51:34;1.07;;;1.00;;
21886;SDS011;11108;49.988;8.182;2023-08-07T05:54:00;3.00;;;1.43;;
21886;SDS011;11108;49.988;8.182;2023-08-07T05:56:25;1.87;;;1.40;;
21886;SDS011;11108;49.988;8.182;2023-08-07T05:58:50;1.40;;;1.30;;
21886;SDS011;11108;49.988;8.182;2023-08-07T06:01:15;1.97;;;1.33;;
21886;SDS011;11108;49.988;8.182;2023-08-07T06:03:42;1.80;;;1.30;;
21886;SDS011;11108;49.988;8.182;2023-08-07T06:06:07;1.33;;;1.07;;
21886;SDS011;11108;49.988;8.182;2023-08-07T06:08:32;2.33;;;1.50;;
21886;SDS011;11108;49.988;8.182;2023-08-07T06:10:59;1.73;;;1.20;;
21886;SDS011;11108;49.988;8.182;2023-08-07T06:13:28;1.73;;;1.40;;
21886;SDS011;11108;49.988;8.182;2023-08-07T06:15:53;1.70;;;1.30;;
21886;SDS011;11108;49.988;8.182;2023-08-07T06:18:19;2.53;;;1.37;;
21886;SDS011;11108;49.988;8.182;2023-08-07T06:20:44;1.30;;;1.20;;
21886;SDS011;11108;49.988;8.182;2023-08-07T06:23:09;2.80;;;1.40;;
21886;SDS011;11108;49.988;8.182;2023-08-07T06:25:35;1.20;;;1.10;;
21886;SDS011;11108;49.988;8.182;2023-08-07T06:28:00;1.83;;;1.33;;
21886;SDS011;11108;49.988;8.182;2023-08-07T06:30:25;1.27;;;1.17;;
21886;SDS011;11108;49.988;8.182;2023-08-07T06:32:50;0.93;;;0.90;;
21886;SDS011;11108;49.988;8.182;2023-08-07T06:35:15;1.77;;;1.17;;
21886;SDS011;11108;49.988;8.182;2023-08-07T06:37:41;1.90;;;1.00;;
21886;SDS011;11108;49.988;8.182;2023-08-07T06:40:06;2.33;;;1.20;;
21886;SDS011;11108;49.988;8.182;2023-08-07T06:42:31;1.37;;;1.17;;
21886;SDS011;11108;49.988;8.182;2023-08-07T06:44:57;2.37;;;1.80;;
21886;SDS011;11108;49.988;8.182;2023-08-07T06:47:22;1.20;;;1.20;;
21886;SDS011;11108;49.988;8.182;2023-08-07T06:49:47;1.37;;;1.23;;
21886;SDS011;11108;49.988;8.182;2023-08-07T06:52:12;1.40;;;1.30;;
21886;SDS011;11108;49.988;8.182;2023-08-07T06:54:38;2.10;;;1.37;;
21886;SDS011;11108;49.988;8.182;2023-08-07T06:57:03;1.77;;;1.30;;
21886;SDS011;11108;49.988;8.182;2023-08-07T06:59:28;1.20;;;1.10;;
21886;SDS011;11108;49.988;8.182;2023-08-07T07:01:54;1.27;;;1.20;;
21886;SDS011;11108;49.988;8.182;2023-08-07T07:04:19;1.00;;;1.00;;
21886;SDS011;11108;49.988;8.182;2023-08-07T07:06:44;1.77;;;1.30;;
21886;SDS011;11108;49.988;8.182;2023-08-07T07:09:09;1.90;;;1.17;;
21886;SDS011;11108;49.988;8.182;2023-08-07T07:11:34;2.83;;;1.37;;
21886;SDS011;11108;49.988;8.182;2023-08-07T07:14:00;3.27;;;1.40;;
21886;SDS011;11108;49.988;8.182;2023-08-07T07:16:25;2.93;;;1.47;;
21886;SDS011;11108;49.988;8.182;2023-08-07T07:18:50;1.63;;;1.20;;
21886;SDS011;11108;49.988;8.182;2023-08-07T07:21:16;2.63;;;1.37;;
21886;SDS011;11108;49.988;8.182;2023-08-07T07:23:41;2.20;;;1.00;;
21886;SDS011;11108;49.988;8.182;2023-08-07T07:26:06;2.60;;;1.23;;
21886;SDS011;11108;49.988;8.182;2023-08-07T07:28:31;1.13;;;1.07;;
21886;SDS011;11108;49.988;8.182;2023-08-07T07:30:57;2.53;;;1.43;;
21886;SDS011;11108;49.988;8.182;2023-08-07T07:33:22;1.27;;;1.20;;
21886;SDS011;11108;49.988;8.182;2023-08-07T07:35:48;1.13;;;1.03;;
21886;SDS011;11108;49.988;8.182;2023-08-07T07:38:13;2.10;;;1.20;;
21886;SDS011;11108;49.988;8.182;2023-08-07T07:40:40;1.47;;;1.30;;
21886;SDS011;11108;49.988;8.182;2023-08-07T07:43:05;1.97;;;1.20;;
21886;SDS011;11108;49.988;8.182;2023-08-07T07:45:30;3.77;;;1.27;;
21886;SDS011;11108;49.988;8.182;2023-08-07T07:47:56;1.77;;;1.30;;
21886;SDS011;11108;49.988;8.182;2023-08-07T07:50:21;1.10;;;1.00;;
21886;SDS011;11108;49.988;8.182;2023-08-07T07:52:46;1.43;;;1.33;;
21886;SDS011;11108;49.988;8.182;2023-08-07T07:55:11;1.47;;;1.37;;
21886;SDS011;11108;49.988;8.182;2023-08-07T07:57:38;3.87;;;1.17;;
21886;SDS011;11108;49.988;8.182;2023-08-07T08:00:04;1.63;;;1.10;;
21886;SDS011;11108;49.988;8.182;2023-08-07T08:02:32;1.77;;;1.20;;
21886;SDS011;11108;49.988;8.182;2023-08-07T08:04:58;1.10;;;1.00;;
21886;SDS011;11108;49.988;8.182;2023-08-07T08:07:23;2.27;;;1.10;;
21886;SDS011;11108;49.988;8.182;2023-08-07T08:09:49;1.20;;;1.10;;
21886;SDS011;11108;49.988;8.182;2023-08-07T08:12:14;1.40;;;1.33;;
21886;SDS011;11108;49.988;8.182;2023-08-07T08:14:39;3.07;;;1.30;;
21886;SDS011;11108;49.988;8.182;2023-08-07T08:17:04;1.40;;;1.30;;
21886;SDS011;11108;49.988;8.182;2023-08-07T08:19:30;6.00;;;1.40;;
21886;SDS011;11108;49.988;8.182;2023-08-07T08:21:55;1.63;;;1.00;;
21886;SDS011;11108;49.988;8.182;2023-08-07T08:24:20;1.37;;;1.27;;
21886;SDS011;11108;49.988;8.182;2023-08-07T08:26:45;1.27;;;1.10;;
21886;SDS011;11108;49.988;8.182;2023-08-07T08:29:13;3.50;;;1.30;;
21886;SDS011;11108;49.988;8.182;2023-08-07T08:31:38;3.30;;;1.40;;
21886;SDS011;11108;49.988;8.182;2023-08-07T08:34:04;1.30;;;1.20;;
21886;SDS011;11108;49.988;8.182;2023-08-07T08:36:29;1.43;;;1.23;;
21886;SDS011;11108;49.988;8.182;2023-08-07T08:38:54;2.10;;;1.40;;
21886;SDS011;11108;49.988;8.182;2023-08-07T08:41:19;1.90;;;1.33;;
21886;SDS011;11108;49.988;8.182;2023-08-07T08:43:46;1.90;;;1.20;;
21886;SDS011;11108;49.988;8.182;2023-08-07T08:46:13;2.17;;;0.90;;
21886;SDS011;11108;49.988;8.182;2023-08-07T08:48:39;1.90;;;1.30;;
21886;SDS011;11108;49.988;8.182;2023-08-07T08:51:05;1.37;;;1.00;;
21886;SDS011;11108;49.988;8.182;2023-08-07T08:53:31;2.10;;;1.33;;
21886;SDS011;11108;49.988;8.182;2023-08-07T08:55:57;1.37;;;1.17;;
21886;SDS011;11108;49.988;8.182;2023-08-07T08:58:22;1.80;;;1.20;;
21886;SDS011;11108;49.988;8.182;2023-08-07T09:00:48;2.47;;;1.50;;
21886;SDS011;11108;49.988;8.182;2023-08-07T09:03:13;1.13;;;1.00;;
21886;SDS011;11108;49.988;8.182;2023-08-07T09:05:38;1.57;;;1.00;;
21886;SDS011;11108;49.988;8.182;2023-08-07T09:08:04;2.40;;;1.20;;
21886;SDS011;11108;49.988;8.182;2023-08-07T09:10:30;1.60;;;1.33;;
21886;SDS011;11108;49.988;8.182;2023-08-07T09:12:57;1.67;;;1.13;;
21886;SDS011;11108;49.988;8.182;2023-08-07T09:15:24;2.00;;;1.00;;
21886;SDS011;11108;49.988;8.182;2023-08-07T09:17:50;1.20;;;1.10;;
21886;SDS011;11108;49.988;8.182;2023-08-07T09:20:16;1.53;;;0.90;;
21886;SDS011;11108;49.988;8.182;2023-08-07T09:22:42;2.47;;;1.57;;
21886;SDS011;11108;49.988;8.182;2023-08-07T09:25:07;2.00;;;1.07;;
21886;SDS011;11108;49.988;8.182;2023-08-07T09:27:34;3.33;;;1.07;;
21886;SDS011;11108;49.988;8.182;2023-08-07T09:30:01;1.20;;;1.10;;
21886;SDS011;11108;49.988;8.182;2023-08-07T09:32:27;3.00;;;1.50;;
21886;SDS011;11108;49.988;8.182;2023-08-07T09:34:53;2.70;;;1.10;;
21886;SDS011;11108;49.988;8.182;2023-08-07T09:37:18;2.97;;;1.30;;
21886;SDS011;11108;49.988;8.182;2023-08-07T09:39:43;3.33;;;1.40;;
21886;SDS011;11108;49.988;8.182;2023-08-07T09:42:15;0.93;;;0.90;;
21886;SDS011;11108;49.988;8.182;2023-08-07T09:44:40;3.53;;;1.20;;
21886;SDS011;11108;49.988;8.182;2023-08-07T09:47:12;3.23;;;1.40;;
21886;SDS011;11108;49.988;8.182;2023-08-07T09:49:39;1.27;;;1.13;;
21886;SDS011;11108;49.988;8.182;2023-08-07T09:52:09;1.20;;;1.10;;
21886;SDS011;11108;49.988;8.182;2023-08-07T09:54:34;2.67;;;1.23;;
21886;SDS011;11108;49.988;8.182;2023-08-07T09:57:03;2.10;;;1.10;;
21886;SDS011;11108;49.988;8.182;2023-08-07T09:59:29;5.30;;;1.63;;
21886;SDS011;11108;49.988;8.182;2023-08-07T10:01:54;2.47;;;1.10;;
21886;SDS011;11108;49.988;8.182;2023-08-07T10:04:20;4.27;;;1.50;;
21886;SDS011;11108;49.988;8.182;2023-08-07T10:06:46;4.17;;;1.33;;
21886;SDS011;11108;49.988;8.182;2023-08-07T10:09:11;2.97;;;1.13;;
21886;SDS011;11108;49.988;8.182;2023-08-07T10:11:38;2.93;;;1.33;;
21886;SDS011;11108;49.988;8.182;2023-08-07T10:14:03;3.10;;;1.53;;
21886;SDS011;11108;49.988;8.182;2023-08-07T10:16:29;1.97;;;1.30;;
21886;SDS011;11108;49.988;8.182;2023-08-07T10:18:55;1.50;;;1.30;;
21886;SDS011;11108;49.988;8.182;2023-08-07T10:21:20;3.47;;;1.43;;
21886;SDS011;11108;49.988;8.182;2023-08-07T10:23:47;2.23;;;1.20;;
21886;SDS011;11108;49.988;8.182;2023-08-07T10:26:13;2.03;;;1.30;;
21886;SDS011;11108;49.988;8.182;2023-08-07T10:28:39;2.77;;;1.20;;
21886;SDS011;11108;49.988;8.182;2023-08-07T10:31:06;2.87;;;1.17;;
21886;SDS011;11108;49.988;8.182;2023-08-07T10:33:31;2.97;;;1.50;;
21886;SDS011;11108;49.988;8.182;2023-08-07T10:35:57;3.07;;;1.80;;
21886;SDS011;11108;49.988;8.182;2023-08-07T10:38:23;4.67;;;2.07;;
21886;SDS011;11108;49.988;8.182;2023-08-07T10:40:58;2.37;;;1.97;;
21886;SDS011;11108;49.988;8.182;2023-08-07T10:43:24;3.83;;;2.30;;
21886;SDS011;11108;49.988;8.182;2023-08-07T10:45:49;4.27;;;2.40;;
21886;SDS011;11108;49.988;8.182;2023-08-07T10:48:17;4.53;;;2.07;;
21886;SDS011;11108;49.988;8.182;2023-08-07T10:53:20;2.73;;;1.90;;
21886;SDS011;11108;49.988;8.182;2023-08-07T10:55:47;4.47;;;2.03;;
21886;SDS011;11108;49.988;8.182;2023-08-07T10:58:22;2.63;;;1.73;;
21886;SDS011;11108;49.988;8.182;2023-08-07T11:00:48;2.07;;;1.57;;
21886;SDS011;11108;49.988;8.182;2023-08-07T11:03:20;2.07;;;1.70;;
21886;SDS011;11108;49.988;8.182;2023-08-07T11:05:45;3.33;;;1.60;;
21886;SDS011;11108;49.988;8.182;2023-08-07T11:08:11;3.50;;;1.33;;
21886;SDS011;11108;49.988;8.182;2023-08-07T11:10:36;1.80;;;1.60;;
21886;SDS011;11108;49.988;8.182;2023-08-07T11:13:02;2.13;;;1.63;;
21886;SDS011;11108;49.988;8.182;2023-08-07T11:15:27;3.33;;;1.63;;
21886;SDS011;11108;49.988;8.182;2023-08-07T11:17:52;1.60;;;1.50;;
21886;SDS011;11108;49.988;8.182;2023-08-07T11:20:18;1.87;;;1.43;;
21886;SDS011;11108;49.988;8.182;2023-08-07T11:22:44;1.60;;;1.50;;
21886;SDS011;11108;49.988;8.182;2023-08-07T11:25:09;2.10;;;1.57;;
21886;SDS011;11108;49.988;8.182;2023-08-07T11:27:36;4.33;;;1.70;;
21886;SDS011;11108;49.988;8.182;2023-08-07T11:30:01;1.60;;;1.50;;
21886;SDS011;11108;49.988;8.182;2023-08-07T11:32:26;1.47;;;1.37;;
21886;SDS011;11108;49.988;8.182;2023-08-07T11:34:53;2.27;;;1.53;;
21886;SDS011;11108;49.988;8.182;2023-08-07T11:37:18;1.77;;;1.67;;
21886;SDS011;11108;49.988;8.182;2023-08-07T11:39:44;1.47;;;1.33;;
21886;SDS011;11108;49.988;8.182;2023-08-07T11:42:09;2.30;;;1.50;;
21886;SDS011;11108;49.988;8.182;2023-08-07T11:44:34;2.40;;;1.50;;
21886;SDS011;11108;49.988;8.182;2023-08-07T11:46:59;1.60;;;1.50;;
21886;SDS011;11108;49.988;8.182;2023-08-07T11:49:25;2.73;;;1.60;;
21886;SDS011;11108;49.988;8.182;2023-08-07T11:51:50;2.50;;;1.67;;
21886;SDS011;11108;49.988;8.182;2023-08-07T11:54:15;1.67;;;1.47;;
21886;SDS011;11108;49.988;8.182;2023-08-07T11:56:41;2.73;;;1.50;;
21886;SDS011;11108;49.988;8.182;2023-08-07T11:59:07;2.67;;;1.50;;
21886;SDS011;11108;49.988;8.182;2023-08-07T12:01:36;1.65;;;1.40;;
21886;SDS011;11108;49.988;8.182;2023-08-07T12:06:30;2.60;;;1.20;;
21886;SDS011;11108;49.988;8.182;2023-08-07T12:08:56;1.50;;;1.40;;
21886;SDS011;11108;49.988;8.182;2023-08-07T12:11:21;1.10;;;0.97;;
21886;SDS011;11108;49.988;8.182;2023-08-07T12:13:47;1.37;;;1.33;;
21886;SDS011;11108;49.988;8.182;2023-08-07T12:16:13;1.43;;;1.20;;
21886;SDS011;11108;49.988;8.182;2023-08-07T12:18:45;1.57;;;1.47;;
21886;SDS011;11108;49.988;8.182;2023-08-07T12:21:11;2.70;;;1.20;;
21886;SDS011;11108;49.988;8.182;2023-08-07T12:23:38;1.37;;;1.27;;
21886;SDS011;11108;49.988;8.182;2023-08-07T12:26:03;2.30;;;1.47;;
21886;SDS011;11108;49.988;8.182;2023-08-07T12:28:30;1.50;;;1.40;;
21886;SDS011;11108;49.988;8.182;2023-08-07T12:30:56;3.90;;;1.50;;
21886;SDS011;11108;49.988;8.182;2023-08-07T12:33:21;2.00;;;1.40;;
21886;SDS011;11108;49.988;8.182;2023-08-07T12:35:46;1.13;;;1.07;;
21886;SDS011;11108;49.988;8.182;2023-08-07T12:38:11;1.80;;;1.10;;
21886;SDS011;11108;49.988;8.182;2023-08-07T12:40:39;1.30;;;1.20;;
21886;SDS011;11108;49.988;8.182;2023-08-07T12:43:05;1.67;;;1.13;;
21886;SDS011;11108;49.988;8.182;2023-08-07T12:45:30;1.80;;;1.13;;
21886;SDS011;11108;49.988;8.182;2023-08-07T12:47:55;2.37;;;1.30;;
21886;SDS011;11108;49.988;8.182;2023-08-07T12:50:20;1.60;;;1.50;;
21886;SDS011;11108;49.988;8.182;2023-08-07T12:52:46;1.53;;;1.40;;
21886;SDS011;11108;49.988;8.182;2023-08-07T12:55:11;1.90;;;1.10;;
21886;SDS011;11108;49.988;8.182;2023-08-07T12:57:40;1.67;;;1.20;;
21886;SDS011;11108;49.988;8.182;2023-08-07T13:00:06;1.17;;;0.97;;
21886;SDS011;11108;49.988;8.182;2023-08-07T13:02:33;1.33;;;1.07;;
21886;SDS011;11108;49.988;8.182;2023-08-07T13:04:58;1.73;;;1.50;;
21886;SDS011;11108;49.988;8.182;2023-08-07T13:07:23;1.00;;;1.00;;
21886;SDS011;11108;49.988;8.182;2023-08-07T13:09:50;2.30;;;1.47;;
21886;SDS011;11108;49.988;8.182;2023-08-07T13:12:15;1.57;;;1.37;;
21886;SDS011;11108;49.988;8.182;2023-08-07T13:14:40;1.60;;;1.40;;
21886;SDS011;11108;49.988;8.182;2023-08-07T13:17:05;1.40;;;1.00;;
21886;SDS011;11108;49.988;8.182;2023-08-07T13:19:31;1.30;;;1.20;;
21886;SDS011;11108;49.988;8.182;2023-08-07T13:21:56;2.30;;;0.93;;
21886;SDS011;11108;49.988;8.182;2023-08-07T13:24:21;1.40;;;1.30;;
21886;SDS011;11108;49.988;8.182;2023-08-07T13:26:46;1.10;;;1.10;;
21886;SDS011;11108;49.988;8.182;2023-08-07T13:29:12;1.37;;;1.27;;
21886;SDS011;11108;49.988;8.182;2023-08-07T13:31:37;1.67;;;1.20;;
21886;SDS011;11108;49.988;8.182;2023-08-07T13:34:02;1.57;;;1.40;;
21886;SDS011;11108;49.988;8.182;2023-08-07T13:36:32;2.33;;;1.50;;
21886;SDS011;11108;49.988;8.182;2023-08-07T13:38:58;2.10;;;1.47;;
21886;SDS011;11108;49.988;8.182;2023-08-07T13:41:25;4.37;;;1.70;;
21886;SDS011;11108;49.988;8.182;2023-08-07T13:43:50;3.10;;;1.47;;
21886;SDS011;11108;49.988;8.182;2023-08-07T13:46:15;1.93;;;1.27;;
21886;SDS011;11108;49.988;8.182;2023-08-07T13:48:41;1.07;;;1.07;;
21886;SDS011;11108;49.988;8.182;2023-08-07T13:51:06;1.30;;;1.20;;
21886;SDS011;11108;49.988;8.182;2023-08-07T13:53:33;2.60;;;1.27;;
21886;SDS011;11108;49.988;8.182;2023-08-07T13:55:58;1.20;;;1.10;;
21886;SDS011;11108;49.988;8.182;2023-08-07T13:58:23;2.13;;;1.20;;
21886;SDS011;11108;49.988;8.182;2023-08-07T14:00:48;1.47;;;1.23;;
21886;SDS011;11108;49.988;8.182;2023-08-07T14:03:13;2.10;;;1.47;;
21886;SDS011;11108;49.988;8.182;2023-08-07T14:05:39;1.77;;;1.17;;
21886;SDS011;11108;49.988;8.182;2023-08-07T14:08:04;1.10;;;1.10;;
21886;SDS011;11108;49.988;8.182;2023-08-07T14:10:29;1.20;;;1.10;;
21886;SDS011;11108;49.988;8.182;2023-08-07T14:12:54;1.37;;;1.20;;
21886;SDS011;11108;49.988;8.182;2023-08-07T14:15:20;1.37;;;1.20;;
21886;SDS011;11108;49.988;8.182;2023-08-07T14:17:45;1.37;;;1.30;;
21886;SDS011;11108;49.988;8.182;2023-08-07T14:20:10;1.90;;;1.50;;
21886;SDS011;11108;49.988;8.182;2023-08-07T14:22:36;1.93;;;1.20;;
21886;SDS011;11108;49.988;8.182;2023-08-07T14:25:02;1.40;;;1.00;;
21886;SDS011;11108;49.988;8.182;2023-08-07T14:27:27;2.00;;;1.47;;
21886;SDS011;11108;49.988;8.182;2023-08-07T14:29:52;1.10;;;1.10;;
21886;SDS011;11108;49.988;8.182;2023-08-07T14:32:17;1.93;;;1.30;;
21886;SDS011;11108;49.988;8.182;2023-08-07T14:34:43;2.43;;;1.30;;
21886;SDS011;11108;49.988;8.182;2023-08-07T14:37:08;2.47;;;1.47;;
21886;SDS011;11108;49.988;8.182;2023-08-07T14:39:33;1.47;;;1.37;;
21886;SDS011;11108;49.988;8.182;2023-08-07T14:41:58;1.23;;;1.10;;
21886;SDS011;11108;49.988;8.182;2023-08-07T14:44:23;1.27;;;1.17;;
21886;SDS011;11108;49.988;8.182;2023-08-07T14:46:49;2.63;;;1.53;;
21886;SDS011;11108;49.988;8.182;2023-08-07T14:49:14;2.47;;;1.27;;